sensor_id;sensor_type;location;lat;lon;timestamp;P1;durP1;ratioP1;P2;durP2;ratioP2
51244;SDS011;37840;47.562;18.738;2023-11-19T00:00:25;8.15;;;6.28;;
51244;SDS011;37840;47.562;18.738;2023-11-19T00:02:52;10.10;;;7.28;;
51244;SDS011;37840;47.562;18.738;2023-11-19T00:05:21;8.80;;;6.07;;
51244;SDS011;37840;47.562;18.738;2023-11-19T00:07:47;8.38;;;6.37;;
51244;SDS011;37840;47.562;18.738;2023-11-19T00:10:14;9.57;;;6.45;;
51244;SDS011;37840;47.562;18.738;2023-11-19T00:12:45;8.15;;;5.68;;
51244;SDS011;37840;47.562;18.738;2023-11-19T00:15:16;15.20;;;7.25;;
51244;SDS011;37840;47.562;18.738;2023-11-19T00:17:44;7.30;;;6.28;;
51244;SDS011;37840;47.562;18.738;2023-11-19T00:20:14;8.30;;;6.68;;
51244;SDS011;37840;47.562;18.738;2023-11-19T00:22:41;8.05;;;7.07;;
51244;SDS011;37840;47.562;18.738;2023-11-19T00:25:08;8.40;;;6.28;;
51244;SDS011;37840;47.562;18.738;2023-11-19T00:27:38;9.35;;;6.85;;
51244;SDS011;37840;47.562;18.738;2023-11-19T00:30:04;9.50;;;7.30;;
51244;SDS011;37840;47.562;18.738;2023-11-19T00:32:32;7.82;;;6.90;;
51244;SDS011;37840;47.562;18.738;2023-11-19T00:35:01;7.40;;;6.10;;
51244;SDS011;37840;47.562;18.738;2023-11-19T00:37:28;7.97;;;6.53;;
51244;SDS011;37840;47.562;18.738;2023-11-19T00:39:54;7.40;;;6.18;;
51244;SDS011;37840;47.562;18.738;2023-11-19T00:42:22;8.75;;;6.47;;
51244;SDS011;37840;47.562;18.738;2023-11-19T00:44:52;9.48;;;7.30;;
51244;SDS011;37840;47.562;18.738;2023-11-19T00:47:18;9.85;;;7.20;;
51244;SDS011;37840;47.562;18.738;2023-11-19T00:49:50;9.98;;;7.10;;
51244;SDS011;37840;47.562;18.738;2023-11-19T00:52:17;10.95;;;7.15;;
51244;SDS011;37840;47.562;18.738;2023-11-19T00:54:49;12.75;;;6.87;;
51244;SDS011;37840;47.562;18.738;2023-11-19T00:57:15;8.13;;;5.78;;
51244;SDS011;37840;47.562;18.738;2023-11-19T00:59:42;8.75;;;6.18;;
51244;SDS011;37840;47.562;18.738;2023-11-19T01:02:08;8.40;;;6.05;;
51244;SDS011;37840;47.562;18.738;2023-11-19T01:04:34;13.35;;;11.35;;
51244;SDS011;37840;47.562;18.738;2023-11-19T01:07:01;11.15;;;8.57;;
51244;SDS011;37840;47.562;18.738;2023-11-19T01:09:48;10.77;;;7.40;;
51244;SDS011;37840;47.562;18.738;2023-11-19T01:12:14;8.57;;;7.20;;
51244;SDS011;37840;47.562;18.738;2023-11-19T01:14:40;9.43;;;7.22;;
51244;SDS011;37840;47.562;18.738;2023-11-19T01:17:06;9.85;;;6.85;;
51244;SDS011;37840;47.562;18.738;2023-11-19T01:19:32;10.75;;;6.18;;
51244;SDS011;37840;47.562;18.738;2023-11-19T01:21:58;7.65;;;5.87;;
51244;SDS011;37840;47.562;18.738;2023-11-19T01:24:24;8.82;;;6.57;;
51244;SDS011;37840;47.562;18.738;2023-11-19T01:26:53;8.25;;;6.95;;
51244;SDS011;37840;47.562;18.738;2023-11-19T01:29:20;10.35;;;7.72;;
51244;SDS011;37840;47.562;18.738;2023-11-19T01:31:46;9.98;;;7.60;;
51244;SDS011;37840;47.562;18.738;2023-11-19T01:34:13;10.85;;;8.27;;
51244;SDS011;37840;47.562;18.738;2023-11-19T01:36:39;10.38;;;8.02;;
51244;SDS011;37840;47.562;18.738;2023-11-19T01:39:05;10.57;;;8.10;;
51244;SDS011;37840;47.562;18.738;2023-11-19T01:41:35;9.35;;;8.15;;
51244;SDS011;37840;47.562;18.738;2023-11-19T01:44:07;10.85;;;7.85;;
51244;SDS011;37840;47.562;18.738;2023-11-19T01:46:33;10.23;;;8.00;;
51244;SDS011;37840;47.562;18.738;2023-11-19T01:49:01;10.38;;;7.50;;
51244;SDS011;37840;47.562;18.738;2023-11-19T01:51:28;9.88;;;8.05;;
51244;SDS011;37840;47.562;18.738;2023-11-19T01:53:54;10.35;;;7.93;;
51244;SDS011;37840;47.562;18.738;2023-11-19T01:56:22;9.95;;;7.35;;
51244;SDS011;37840;47.562;18.738;2023-11-19T01:58:48;8.85;;;6.65;;
51244;SDS011;37840;47.562;18.738;2023-11-19T02:01:15;9.82;;;7.22;;
51244;SDS011;37840;47.562;18.738;2023-11-19T02:03:42;8.90;;;6.93;;
51244;SDS011;37840;47.562;18.738;2023-11-19T02:06:08;9.02;;;7.03;;
51244;SDS011;37840;47.562;18.738;2023-11-19T02:08:36;14.07;;;7.82;;
51244;SDS011;37840;47.562;18.738;2023-11-19T02:11:03;11.77;;;8.23;;
51244;SDS011;37840;47.562;18.738;2023-11-19T02:13:30;9.98;;;7.43;;
51244;SDS011;37840;47.562;18.738;2023-11-19T02:15:56;9.88;;;7.93;;
51244;SDS011;37840;47.562;18.738;2023-11-19T02:18:26;10.40;;;8.32;;
51244;SDS011;37840;47.562;18.738;2023-11-19T02:20:58;10.90;;;8.50;;
51244;SDS011;37840;47.562;18.738;2023-11-19T02:23:27;13.68;;;10.30;;
51244;SDS011;37840;47.562;18.738;2023-11-19T02:29:04;14.13;;;8.63;;
51244;SDS011;37840;47.562;18.738;2023-11-19T02:31:32;12.65;;;8.90;;
51244;SDS011;37840;47.562;18.738;2023-11-19T02:33:59;11.70;;;7.87;;
51244;SDS011;37840;47.562;18.738;2023-11-19T02:36:26;11.38;;;7.75;;
51244;SDS011;37840;47.562;18.738;2023-11-19T02:38:52;10.13;;;7.82;;
51244;SDS011;37840;47.562;18.738;2023-11-19T02:41:18;11.93;;;6.75;;
51244;SDS011;37840;47.562;18.738;2023-11-19T02:43:44;10.07;;;7.45;;
51244;SDS011;37840;47.562;18.738;2023-11-19T02:46:10;8.73;;;7.05;;
51244;SDS011;37840;47.562;18.738;2023-11-19T02:48:36;9.77;;;6.53;;
51244;SDS011;37840;47.562;18.738;2023-11-19T02:51:02;7.53;;;6.20;;
51244;SDS011;37840;47.562;18.738;2023-11-19T02:53:32;7.90;;;6.37;;
51244;SDS011;37840;47.562;18.738;2023-11-19T02:55:58;7.95;;;6.57;;
51244;SDS011;37840;47.562;18.738;2023-11-19T02:58:30;9.30;;;6.75;;
51244;SDS011;37840;47.562;18.738;2023-11-19T03:00:56;12.80;;;7.18;;
51244;SDS011;37840;47.562;18.738;2023-11-19T03:03:35;8.95;;;6.55;;
51244;SDS011;37840;47.562;18.738;2023-11-19T03:06:06;9.73;;;7.20;;
51244;SDS011;37840;47.562;18.738;2023-11-19T03:08:35;8.45;;;6.62;;
51244;SDS011;37840;47.562;18.738;2023-11-19T03:11:01;8.27;;;6.82;;
51244;SDS011;37840;47.562;18.738;2023-11-19T03:13:28;9.88;;;7.70;;
51244;SDS011;37840;47.562;18.738;2023-11-19T03:15:54;9.45;;;7.62;;
51244;SDS011;37840;47.562;18.738;2023-11-19T03:18:20;11.10;;;8.05;;
51244;SDS011;37840;47.562;18.738;2023-11-19T03:20:46;12.82;;;8.73;;
51244;SDS011;37840;47.562;18.738;2023-11-19T03:23:12;11.45;;;8.30;;
51244;SDS011;37840;47.562;18.738;2023-11-19T03:25:38;12.00;;;7.95;;
51244;SDS011;37840;47.562;18.738;2023-11-19T03:28:04;9.98;;;7.90;;
51244;SDS011;37840;47.562;18.738;2023-11-19T03:30:32;10.43;;;7.47;;
51244;SDS011;37840;47.562;18.738;2023-11-19T03:32:58;9.23;;;7.72;;
51244;SDS011;37840;47.562;18.738;2023-11-19T03:35:25;8.65;;;7.53;;
51244;SDS011;37840;47.562;18.738;2023-11-19T03:37:51;8.80;;;7.28;;
51244;SDS011;37840;47.562;18.738;2023-11-19T03:40:18;8.90;;;7.30;;
51244;SDS011;37840;47.562;18.738;2023-11-19T03:42:45;9.43;;;6.95;;
51244;SDS011;37840;47.562;18.738;2023-11-19T03:45:11;9.80;;;7.43;;
51244;SDS011;37840;47.562;18.738;2023-11-19T03:47:37;9.25;;;6.97;;
51244;SDS011;37840;47.562;18.738;2023-11-19T03:50:04;8.77;;;6.60;;
51244;SDS011;37840;47.562;18.738;2023-11-19T03:52:31;8.73;;;7.18;;
51244;SDS011;37840;47.562;18.738;2023-11-19T03:54:57;9.10;;;7.53;;
51244;SDS011;37840;47.562;18.738;2023-11-19T03:57:23;12.13;;;7.65;;
51244;SDS011;37840;47.562;18.738;2023-11-19T03:59:49;9.40;;;7.03;;
51244;SDS011;37840;47.562;18.738;2023-11-19T04:02:16;9.32;;;7.10;;
51244;SDS011;37840;47.562;18.738;2023-11-19T04:04:42;8.95;;;7.10;;
51244;SDS011;37840;47.562;18.738;2023-11-19T04:07:08;9.48;;;7.65;;
51244;SDS011;37840;47.562;18.738;2023-11-19T04:09:34;8.98;;;7.10;;
51244;SDS011;37840;47.562;18.738;2023-11-19T04:12:03;10.73;;;7.70;;
51244;SDS011;37840;47.562;18.738;2023-11-19T04:14:29;9.23;;;7.55;;
51244;SDS011;37840;47.562;18.738;2023-11-19T04:16:55;9.05;;;7.43;;
51244;SDS011;37840;47.562;18.738;2023-11-19T04:19:21;12.00;;;8.52;;
51244;SDS011;37840;47.562;18.738;2023-11-19T04:24:32;10.20;;;7.82;;
51244;SDS011;37840;47.562;18.738;2023-11-19T04:26:58;13.20;;;9.55;;
51244;SDS011;37840;47.562;18.738;2023-11-19T04:29:24;13.55;;;9.63;;
51244;SDS011;37840;47.562;18.738;2023-11-19T04:31:50;12.82;;;9.60;;
51244;SDS011;37840;47.562;18.738;2023-11-19T04:34:16;13.13;;;8.68;;
51244;SDS011;37840;47.562;18.738;2023-11-19T04:36:42;10.73;;;8.77;;
51244;SDS011;37840;47.562;18.738;2023-11-19T04:39:09;13.18;;;9.25;;
51244;SDS011;37840;47.562;18.738;2023-11-19T04:44:17;12.27;;;8.55;;
51244;SDS011;37840;47.562;18.738;2023-11-19T04:46:43;11.40;;;7.93;;
51244;SDS011;37840;47.562;18.738;2023-11-19T04:49:10;11.85;;;7.68;;
51244;SDS011;37840;47.562;18.738;2023-11-19T04:51:39;13.18;;;8.57;;
51244;SDS011;37840;47.562;18.738;2023-11-19T04:54:07;10.90;;;8.73;;
51244;SDS011;37840;47.562;18.738;2023-11-19T04:56:35;9.95;;;7.40;;
51244;SDS011;37840;47.562;18.738;2023-11-19T04:59:04;11.63;;;7.85;;
51244;SDS011;37840;47.562;18.738;2023-11-19T05:01:35;10.60;;;7.00;;
51244;SDS011;37840;47.562;18.738;2023-11-19T05:04:01;9.82;;;7.32;;
51244;SDS011;37840;47.562;18.738;2023-11-19T05:06:30;10.60;;;7.37;;
51244;SDS011;37840;47.562;18.738;2023-11-19T05:08:58;9.68;;;7.30;;
51244;SDS011;37840;47.562;18.738;2023-11-19T05:11:27;8.45;;;6.80;;
51244;SDS011;37840;47.562;18.738;2023-11-19T05:13:54;12.95;;;8.65;;
51244;SDS011;37840;47.562;18.738;2023-11-19T05:16:20;10.55;;;7.82;;
51244;SDS011;37840;47.562;18.738;2023-11-19T05:18:46;11.98;;;8.40;;
51244;SDS011;37840;47.562;18.738;2023-11-19T05:21:12;16.60;;;10.13;;
51244;SDS011;37840;47.562;18.738;2023-11-19T05:23:39;15.05;;;10.30;;
51244;SDS011;37840;47.562;18.738;2023-11-19T05:26:05;20.60;;;13.32;;
51244;SDS011;37840;47.562;18.738;2023-11-19T05:28:31;18.48;;;11.45;;
51244;SDS011;37840;47.562;18.738;2023-11-19T05:30:57;17.12;;;11.43;;
51244;SDS011;37840;47.562;18.738;2023-11-19T05:33:23;16.00;;;10.43;;
51244;SDS011;37840;47.562;18.738;2023-11-19T05:35:49;17.17;;;11.15;;
51244;SDS011;37840;47.562;18.738;2023-11-19T05:38:14;18.62;;;12.25;;
51244;SDS011;37840;47.562;18.738;2023-11-19T05:40:41;17.30;;;10.90;;
51244;SDS011;37840;47.562;18.738;2023-11-19T05:43:07;18.02;;;10.55;;
51244;SDS011;37840;47.562;18.738;2023-11-19T05:45:33;16.92;;;9.95;;
51244;SDS011;37840;47.562;18.738;2023-11-19T05:47:59;14.00;;;9.65;;
51244;SDS011;37840;47.562;18.738;2023-11-19T05:50:25;12.32;;;9.48;;
51244;SDS011;37840;47.562;18.738;2023-11-19T05:52:51;15.00;;;9.57;;
51244;SDS011;37840;47.562;18.738;2023-11-19T05:55:18;14.82;;;10.80;;
51244;SDS011;37840;47.562;18.738;2023-11-19T05:57:45;14.95;;;10.50;;
51244;SDS011;37840;47.562;18.738;2023-11-19T06:00:11;18.87;;;13.32;;
51244;SDS011;37840;47.562;18.738;2023-11-19T06:02:38;17.05;;;12.40;;
51244;SDS011;37840;47.562;18.738;2023-11-19T06:05:04;19.25;;;12.37;;
51244;SDS011;37840;47.562;18.738;2023-11-19T06:07:34;19.77;;;12.75;;
51244;SDS011;37840;47.562;18.738;2023-11-19T06:10:02;17.20;;;12.33;;
51244;SDS011;37840;47.562;18.738;2023-11-19T06:12:33;20.12;;;12.25;;
51244;SDS011;37840;47.562;18.738;2023-11-19T06:15:04;19.58;;;11.98;;
51244;SDS011;37840;47.562;18.738;2023-11-19T06:17:31;15.73;;;10.38;;
51244;SDS011;37840;47.562;18.738;2023-11-19T06:19:57;14.73;;;10.82;;
51244;SDS011;37840;47.562;18.738;2023-11-19T06:22:23;13.02;;;9.80;;
51244;SDS011;37840;47.562;18.738;2023-11-19T06:24:49;12.00;;;8.60;;
51244;SDS011;37840;47.562;18.738;2023-11-19T06:27:15;11.30;;;8.90;;
51244;SDS011;37840;47.562;18.738;2023-11-19T06:29:41;13.55;;;9.23;;
51244;SDS011;37840;47.562;18.738;2023-11-19T06:32:07;13.80;;;9.75;;
51244;SDS011;37840;47.562;18.738;2023-11-19T06:34:34;13.82;;;10.85;;
51244;SDS011;37840;47.562;18.738;2023-11-19T06:37:00;12.52;;;9.57;;
51244;SDS011;37840;47.562;18.738;2023-11-19T06:39:25;13.98;;;10.00;;
51244;SDS011;37840;47.562;18.738;2023-11-19T06:41:51;13.82;;;9.63;;
51244;SDS011;37840;47.562;18.738;2023-11-19T06:44:17;15.13;;;10.75;;
51244;SDS011;37840;47.562;18.738;2023-11-19T06:46:43;12.43;;;9.60;;
51244;SDS011;37840;47.562;18.738;2023-11-19T06:49:09;13.48;;;9.65;;
51244;SDS011;37840;47.562;18.738;2023-11-19T06:51:35;13.57;;;9.75;;
51244;SDS011;37840;47.562;18.738;2023-11-19T06:54:01;12.05;;;8.98;;
51244;SDS011;37840;47.562;18.738;2023-11-19T06:56:27;11.75;;;8.43;;
51244;SDS011;37840;47.562;18.738;2023-11-19T06:58:53;12.52;;;8.98;;
51244;SDS011;37840;47.562;18.738;2023-11-19T07:01:19;11.50;;;8.57;;
51244;SDS011;37840;47.562;18.738;2023-11-19T07:03:45;11.68;;;8.05;;
51244;SDS011;37840;47.562;18.738;2023-11-19T07:06:11;11.27;;;8.57;;
51244;SDS011;37840;47.562;18.738;2023-11-19T07:08:43;11.18;;;8.60;;
51244;SDS011;37840;47.562;18.738;2023-11-19T07:11:13;12.95;;;8.38;;
51244;SDS011;37840;47.562;18.738;2023-11-19T07:13:42;11.82;;;9.00;;
51244;SDS011;37840;47.562;18.738;2023-11-19T07:16:08;12.25;;;8.88;;
51244;SDS011;37840;47.562;18.738;2023-11-19T07:18:37;14.10;;;8.95;;
51244;SDS011;37840;47.562;18.738;2023-11-19T07:21:04;12.25;;;8.27;;
51244;SDS011;37840;47.562;18.738;2023-11-19T07:23:30;12.85;;;10.10;;
51244;SDS011;37840;47.562;18.738;2023-11-19T07:25:56;14.45;;;10.13;;
51244;SDS011;37840;47.562;18.738;2023-11-19T07:28:22;13.90;;;10.20;;
51244;SDS011;37840;47.562;18.738;2023-11-19T07:30:48;16.85;;;10.07;;
51244;SDS011;37840;47.562;18.738;2023-11-19T07:33:15;14.87;;;9.93;;
51244;SDS011;37840;47.562;18.738;2023-11-19T07:35:42;13.82;;;9.75;;
51244;SDS011;37840;47.562;18.738;2023-11-19T07:38:09;12.73;;;9.80;;
51244;SDS011;37840;47.562;18.738;2023-11-19T07:40:35;14.35;;;9.98;;
51244;SDS011;37840;47.562;18.738;2023-11-19T07:43:01;12.88;;;9.27;;
51244;SDS011;37840;47.562;18.738;2023-11-19T07:45:27;17.17;;;10.32;;
51244;SDS011;37840;47.562;18.738;2023-11-19T07:47:53;20.27;;;12.55;;
51244;SDS011;37840;47.562;18.738;2023-11-19T07:50:20;20.85;;;12.23;;
51244;SDS011;37840;47.562;18.738;2023-11-19T07:52:46;15.93;;;11.32;;
51244;SDS011;37840;47.562;18.738;2023-11-19T07:55:12;17.58;;;12.27;;
51244;SDS011;37840;47.562;18.738;2023-11-19T07:57:37;17.48;;;12.10;;
51244;SDS011;37840;47.562;18.738;2023-11-19T08:00:04;17.90;;;12.55;;
51244;SDS011;37840;47.562;18.738;2023-11-19T08:02:30;20.37;;;13.77;;
51244;SDS011;37840;47.562;18.738;2023-11-19T08:04:56;24.10;;;15.77;;
51244;SDS011;37840;47.562;18.738;2023-11-19T08:07:22;23.27;;;16.62;;
51244;SDS011;37840;47.562;18.738;2023-11-19T08:09:48;18.58;;;13.05;;
51244;SDS011;37840;47.562;18.738;2023-11-19T08:12:14;18.67;;;13.68;;
51244;SDS011;37840;47.562;18.738;2023-11-19T08:14:41;16.98;;;11.45;;
51244;SDS011;37840;47.562;18.738;2023-11-19T08:17:07;17.37;;;11.82;;
51244;SDS011;37840;47.562;18.738;2023-11-19T08:19:33;16.05;;;10.82;;
51244;SDS011;37840;47.562;18.738;2023-11-19T08:21:59;19.67;;;12.85;;
51244;SDS011;37840;47.562;18.738;2023-11-19T08:24:25;16.25;;;12.02;;
51244;SDS011;37840;47.562;18.738;2023-11-19T08:26:50;17.30;;;11.73;;
51244;SDS011;37840;47.562;18.738;2023-11-19T08:29:17;14.25;;;9.93;;
51244;SDS011;37840;47.562;18.738;2023-11-19T08:31:43;16.35;;;11.70;;
51244;SDS011;37840;47.562;18.738;2023-11-19T08:34:09;14.20;;;9.52;;
51244;SDS011;37840;47.562;18.738;2023-11-19T08:36:35;13.10;;;9.55;;
51244;SDS011;37840;47.562;18.738;2023-11-19T08:39:01;14.25;;;10.00;;
51244;SDS011;37840;47.562;18.738;2023-11-19T08:41:27;12.52;;;9.52;;
51244;SDS011;37840;47.562;18.738;2023-11-19T08:43:53;14.32;;;10.50;;
51244;SDS011;37840;47.562;18.738;2023-11-19T08:46:19;11.50;;;8.32;;
51244;SDS011;37840;47.562;18.738;2023-11-19T08:48:45;10.00;;;8.35;;
51244;SDS011;37840;47.562;18.738;2023-11-19T08:51:14;10.00;;;7.72;;
51244;SDS011;37840;47.562;18.738;2023-11-19T08:53:40;10.32;;;8.18;;
51244;SDS011;37840;47.562;18.738;2023-11-19T08:56:06;12.88;;;9.70;;
51244;SDS011;37840;47.562;18.738;2023-11-19T08:58:32;10.65;;;8.20;;
51244;SDS011;37840;47.562;18.738;2023-11-19T09:00:58;11.93;;;8.25;;
51244;SDS011;37840;47.562;18.738;2023-11-19T09:03:24;11.50;;;8.65;;
51244;SDS011;37840;47.562;18.738;2023-11-19T09:05:52;11.12;;;8.43;;
51244;SDS011;37840;47.562;18.738;2023-11-19T09:08:18;9.05;;;7.57;;
51244;SDS011;37840;47.562;18.738;2023-11-19T09:10:44;12.00;;;8.35;;
51244;SDS011;37840;47.562;18.738;2023-11-19T09:13:10;10.57;;;8.02;;
51244;SDS011;37840;47.562;18.738;2023-11-19T09:15:36;11.10;;;8.32;;
51244;SDS011;37840;47.562;18.738;2023-11-19T09:18:02;9.43;;;7.85;;
51244;SDS011;37840;47.562;18.738;2023-11-19T09:20:28;11.70;;;8.10;;
51244;SDS011;37840;47.562;18.738;2023-11-19T09:22:58;11.63;;;8.25;;
51244;SDS011;37840;47.562;18.738;2023-11-19T09:25:23;12.70;;;8.85;;
51244;SDS011;37840;47.562;18.738;2023-11-19T09:27:49;10.02;;;7.87;;
51244;SDS011;37840;47.562;18.738;2023-11-19T09:30:15;11.77;;;8.32;;
51244;SDS011;37840;47.562;18.738;2023-11-19T09:32:41;12.13;;;8.45;;
51244;SDS011;37840;47.562;18.738;2023-11-19T09:35:07;10.48;;;8.38;;
51244;SDS011;37840;47.562;18.738;2023-11-19T09:37:34;10.20;;;8.07;;
51244;SDS011;37840;47.562;18.738;2023-11-19T09:40:00;11.27;;;8.00;;
51244;SDS011;37840;47.562;18.738;2023-11-19T09:42:26;12.48;;;9.18;;
51244;SDS011;37840;47.562;18.738;2023-11-19T09:44:53;10.15;;;8.43;;
51244;SDS011;37840;47.562;18.738;2023-11-19T09:47:20;11.60;;;8.65;;
51244;SDS011;37840;47.562;18.738;2023-11-19T09:49:46;11.65;;;8.77;;
51244;SDS011;37840;47.562;18.738;2023-11-19T09:52:14;11.60;;;8.98;;
51244;SDS011;37840;47.562;18.738;2023-11-19T09:54:40;11.93;;;8.68;;
51244;SDS011;37840;47.562;18.738;2023-11-19T09:57:06;12.02;;;9.18;;
51244;SDS011;37840;47.562;18.738;2023-11-19T09:59:33;13.57;;;9.18;;
51244;SDS011;37840;47.562;18.738;2023-11-19T10:01:59;13.77;;;9.50;;
51244;SDS011;37840;47.562;18.738;2023-11-19T10:04:25;13.15;;;9.70;;
51244;SDS011;37840;47.562;18.738;2023-11-19T10:06:55;13.35;;;9.10;;
51244;SDS011;37840;47.562;18.738;2023-11-19T10:09:21;12.98;;;9.73;;
51244;SDS011;37840;47.562;18.738;2023-11-19T10:11:47;12.48;;;9.80;;
51244;SDS011;37840;47.562;18.738;2023-11-19T10:14:14;12.57;;;9.93;;
51244;SDS011;37840;47.562;18.738;2023-11-19T10:16:40;11.12;;;9.07;;
51244;SDS011;37840;47.562;18.738;2023-11-19T10:19:08;13.45;;;9.88;;
51244;SDS011;37840;47.562;18.738;2023-11-19T10:21:44;12.50;;;9.02;;
51244;SDS011;37840;47.562;18.738;2023-11-19T10:24:11;10.77;;;8.55;;
51244;SDS011;37840;47.562;18.738;2023-11-19T10:26:37;11.23;;;8.75;;
51244;SDS011;37840;47.562;18.738;2023-11-19T10:29:03;13.48;;;9.50;;
51244;SDS011;37840;47.562;18.738;2023-11-19T10:31:30;14.63;;;9.80;;
51244;SDS011;37840;47.562;18.738;2023-11-19T10:33:56;12.32;;;9.20;;
51244;SDS011;37840;47.562;18.738;2023-11-19T10:36:22;12.80;;;8.50;;
51244;SDS011;37840;47.562;18.738;2023-11-19T10:38:53;12.37;;;8.82;;
51244;SDS011;37840;47.562;18.738;2023-11-19T10:41:29;10.50;;;8.75;;
51244;SDS011;37840;47.562;18.738;2023-11-19T10:43:56;10.20;;;8.65;;
51244;SDS011;37840;47.562;18.738;2023-11-19T10:46:23;11.23;;;8.88;;
51244;SDS011;37840;47.562;18.738;2023-11-19T10:49:02;10.40;;;7.60;;
51244;SDS011;37840;47.562;18.738;2023-11-19T10:51:28;10.13;;;7.62;;
51244;SDS011;37840;47.562;18.738;2023-11-19T10:53:54;9.52;;;8.07;;
51244;SDS011;37840;47.562;18.738;2023-11-19T10:56:30;11.85;;;8.00;;
51244;SDS011;37840;47.562;18.738;2023-11-19T10:58:58;10.50;;;8.35;;
51244;SDS011;37840;47.562;18.738;2023-11-19T11:01:35;9.95;;;8.15;;
51244;SDS011;37840;47.562;18.738;2023-11-19T11:04:15;9.52;;;7.82;;
51244;SDS011;37840;47.562;18.738;2023-11-19T11:06:48;8.80;;;7.40;;
51244;SDS011;37840;47.562;18.738;2023-11-19T11:09:14;11.45;;;8.45;;
51244;SDS011;37840;47.562;18.738;2023-11-19T11:11:40;9.40;;;8.45;;
51244;SDS011;37840;47.562;18.738;2023-11-19T11:14:10;10.48;;;8.13;;
51244;SDS011;37840;47.562;18.738;2023-11-19T11:16:40;9.50;;;7.62;;
51244;SDS011;37840;47.562;18.738;2023-11-19T11:19:08;9.85;;;8.02;;
51244;SDS011;37840;47.562;18.738;2023-11-19T11:21:35;8.10;;;7.07;;
51244;SDS011;37840;47.562;18.738;2023-11-19T11:29:41;9.35;;;6.82;;
51244;SDS011;37840;47.562;18.738;2023-11-19T11:32:33;7.45;;;6.55;;
51244;SDS011;37840;47.562;18.738;2023-11-19T11:37:47;7.75;;;6.30;;
51244;SDS011;37840;47.562;18.738;2023-11-19T11:40:16;6.53;;;5.90;;
51244;SDS011;37840;47.562;18.738;2023-11-19T11:42:46;9.18;;;6.85;;
51244;SDS011;37840;47.562;18.738;2023-11-19T11:45:13;8.43;;;7.03;;
51244;SDS011;37840;47.562;18.738;2023-11-19T11:50:11;7.80;;;6.97;;
51244;SDS011;37840;47.562;18.738;2023-11-19T11:55:25;9.05;;;7.22;;
51244;SDS011;37840;47.562;18.738;2023-11-19T11:57:55;8.65;;;7.25;;
51244;SDS011;37840;47.562;18.738;2023-11-19T12:00:31;8.57;;;7.37;;
51244;SDS011;37840;47.562;18.738;2023-11-19T12:03:05;9.98;;;7.93;;
51244;SDS011;37840;47.562;18.738;2023-11-19T12:05:32;8.80;;;7.90;;
51244;SDS011;37840;47.562;18.738;2023-11-19T12:08:03;9.50;;;7.25;;
51244;SDS011;37840;47.562;18.738;2023-11-19T12:10:45;9.97;;;7.73;;
51244;SDS011;37840;47.562;18.738;2023-11-19T12:13:13;10.63;;;8.52;;
51244;SDS011;37840;47.562;18.738;2023-11-19T12:18:28;11.50;;;9.18;;
51244;SDS011;37840;47.562;18.738;2023-11-19T12:20:55;10.57;;;8.68;;
51244;SDS011;37840;47.562;18.738;2023-11-19T12:23:22;11.70;;;8.77;;
51244;SDS011;37840;47.562;18.738;2023-11-19T12:25:49;10.68;;;8.82;;
51244;SDS011;37840;47.562;18.738;2023-11-19T12:28:15;9.70;;;8.18;;
51244;SDS011;37840;47.562;18.738;2023-11-19T12:30:44;9.95;;;8.52;;
51244;SDS011;37840;47.562;18.738;2023-11-19T12:33:11;12.15;;;9.32;;
51244;SDS011;37840;47.562;18.738;2023-11-19T12:35:42;10.68;;;8.68;;
51244;SDS011;37840;47.562;18.738;2023-11-19T12:38:19;12.98;;;9.20;;
51244;SDS011;37840;47.562;18.738;2023-11-19T12:40:46;11.88;;;9.15;;
51244;SDS011;37840;47.562;18.738;2023-11-19T12:43:22;10.93;;;8.98;;
51244;SDS011;37840;47.562;18.738;2023-11-19T12:45:48;11.80;;;9.13;;
51244;SDS011;37840;47.562;18.738;2023-11-19T12:48:14;10.52;;;8.82;;
51244;SDS011;37840;47.562;18.738;2023-11-19T12:53:25;10.68;;;8.65;;
51244;SDS011;37840;47.562;18.738;2023-11-19T12:55:53;12.02;;;8.98;;
51244;SDS011;37840;47.562;18.738;2023-11-19T12:58:32;9.88;;;8.30;;
51244;SDS011;37840;47.562;18.738;2023-11-19T13:01:14;12.10;;;8.55;;
51244;SDS011;37840;47.562;18.738;2023-11-19T13:03:41;10.68;;;8.95;;
51244;SDS011;37840;47.562;18.738;2023-11-19T13:06:08;11.85;;;9.02;;
51244;SDS011;37840;47.562;18.738;2023-11-19T13:08:38;10.50;;;9.32;;
51244;SDS011;37840;47.562;18.738;2023-11-19T13:11:12;11.00;;;8.98;;
51244;SDS011;37840;47.562;18.738;2023-11-19T13:13:54;12.05;;;9.25;;
51244;SDS011;37840;47.562;18.738;2023-11-19T13:16:25;10.95;;;9.10;;
51244;SDS011;37840;47.562;18.738;2023-11-19T13:18:51;10.65;;;9.13;;
51244;SDS011;37840;47.562;18.738;2023-11-19T13:21:17;13.62;;;9.43;;
51244;SDS011;37840;47.562;18.738;2023-11-19T13:23:44;11.65;;;9.15;;
51244;SDS011;37840;47.562;18.738;2023-11-19T13:26:10;11.77;;;9.55;;
51244;SDS011;37840;47.562;18.738;2023-11-19T13:28:37;11.57;;;9.30;;
51244;SDS011;37840;47.562;18.738;2023-11-19T13:31:03;13.70;;;10.15;;
51244;SDS011;37840;47.562;18.738;2023-11-19T13:33:30;12.75;;;9.77;;
51244;SDS011;37840;47.562;18.738;2023-11-19T13:35:57;12.75;;;9.85;;
51244;SDS011;37840;47.562;18.738;2023-11-19T13:38:23;13.25;;;9.15;;
51244;SDS011;37840;47.562;18.738;2023-11-19T13:40:49;11.70;;;9.70;;
51244;SDS011;37840;47.562;18.738;2023-11-19T13:43:16;12.25;;;9.10;;
51244;SDS011;37840;47.562;18.738;2023-11-19T13:45:42;11.30;;;8.88;;
51244;SDS011;37840;47.562;18.738;2023-11-19T13:48:08;11.35;;;9.18;;
51244;SDS011;37840;47.562;18.738;2023-11-19T13:50:35;10.88;;;9.20;;
51244;SDS011;37840;47.562;18.738;2023-11-19T13:53:01;10.40;;;8.20;;
51244;SDS011;37840;47.562;18.738;2023-11-19T13:55:26;10.90;;;8.80;;
51244;SDS011;37840;47.562;18.738;2023-11-19T13:57:52;11.15;;;8.63;;
51244;SDS011;37840;47.562;18.738;2023-11-19T14:00:18;10.45;;;8.48;;
51244;SDS011;37840;47.562;18.738;2023-11-19T14:02:45;10.45;;;8.57;;
51244;SDS011;37840;47.562;18.738;2023-11-19T14:05:13;12.52;;;8.45;;
51244;SDS011;37840;47.562;18.738;2023-11-19T14:07:39;10.48;;;7.78;;
51244;SDS011;37840;47.562;18.738;2023-11-19T14:10:06;11.98;;;8.15;;
51244;SDS011;37840;47.562;18.738;2023-11-19T14:12:34;9.60;;;8.02;;
51244;SDS011;37840;47.562;18.738;2023-11-19T14:15:06;10.52;;;8.25;;
51244;SDS011;37840;47.562;18.738;2023-11-19T14:17:34;8.90;;;7.72;;
51244;SDS011;37840;47.562;18.738;2023-11-19T14:20:02;8.73;;;7.40;;
51244;SDS011;37840;47.562;18.738;2023-11-19T14:22:39;10.20;;;7.30;;
51244;SDS011;37840;47.562;18.738;2023-11-19T14:25:08;9.75;;;7.85;;
51244;SDS011;37840;47.562;18.738;2023-11-19T14:27:36;9.27;;;7.30;;
51244;SDS011;37840;47.562;18.738;2023-11-19T14:30:06;8.35;;;7.35;;
51244;SDS011;37840;47.562;18.738;2023-11-19T14:32:36;9.88;;;7.40;;
51244;SDS011;37840;47.562;18.738;2023-11-19T14:35:03;8.15;;;7.22;;
51244;SDS011;37840;47.562;18.738;2023-11-19T14:37:30;10.07;;;7.87;;
51244;SDS011;37840;47.562;18.738;2023-11-19T14:39:59;10.95;;;8.15;;
51244;SDS011;37840;47.562;18.738;2023-11-19T14:42:26;10.38;;;8.13;;
51244;SDS011;37840;47.562;18.738;2023-11-19T14:44:52;10.32;;;7.87;;
51244;SDS011;37840;47.562;18.738;2023-11-19T14:47:19;10.77;;;8.40;;
51244;SDS011;37840;47.562;18.738;2023-11-19T14:49:46;10.63;;;8.10;;
51244;SDS011;37840;47.562;18.738;2023-11-19T14:52:11;9.80;;;8.38;;